sensor_id;sensor_type;location;lat;lon;timestamp;pressure;altitude;pressure_sealevel;temperature;humidity
74975;BME280;68459;50.836;19.138;2023-06-10T00:02:02;98392.88;;;17.21;75.89
74975;BME280;68459;50.836;19.138;2023-06-10T00:05:06;98389.31;;;17.21;75.61
74975;BME280;68459;50.836;19.138;2023-06-10T00:08:14;98386.06;;;17.19;75.87
74975;BME280;68459;50.836;19.138;2023-06-10T00:11:21;98391.50;;;17.19;75.68
74975;BME280;68459;50.836;19.138;2023-06-10T00:14:25;98393.41;;;17.18;75.58
74975;BME280;68459;50.836;19.138;2023-06-10T00:17:29;98392.06;;;17.16;75.55
74975;BME280;68459;50.836;19.138;2023-06-10T00:20:33;98398.06;;;17.13;75.75
74975;BME280;68459;50.836;19.138;2023-06-10T00:23:39;98404.03;;;17.09;76.24
74975;BME280;68459;50.836;19.138;2023-06-10T00:26:43;98408.41;;;17.05;76.18
74975;BME280;68459;50.836;19.138;2023-06-10T00:29:47;98405.97;;;17.04;75.72
74975;BME280;68459;50.836;19.138;2023-06-10T00:32:51;98410.59;;;17.03;76.00
74975;BME280;68459;50.836;19.138;2023-06-10T00:35:55;98415.47;;;17.06;75.96
74975;BME280;68459;50.836;19.138;2023-06-10T00:39:01;98418.75;;;17.08;76.29
74975;BME280;68459;50.836;19.138;2023-06-10T00:42:07;98414.41;;;17.13;76.02
74975;BME280;68459;50.836;19.138;2023-06-10T00:45:13;98413.59;;;17.17;76.25
74975;BME280;68459;50.836;19.138;2023-06-10T00:48:17;98418.50;;;17.20;75.74
74975;BME280;68459;50.836;19.138;2023-06-10T00:51:22;98420.41;;;17.20;76.09
74975;BME280;68459;50.836;19.138;2023-06-10T00:54:27;98420.41;;;17.20;75.76
74975;BME280;68459;50.836;19.138;2023-06-10T00:57:32;98421.50;;;17.24;76.31
74975;BME280;68459;50.836;19.138;2023-06-10T01:00:36;98419.31;;;17.26;76.04
74975;BME280;68459;50.836;19.138;2023-06-10T01:03:40;98420.13;;;17.26;75.73
74975;BME280;68459;50.836;19.138;2023-06-10T01:06:49;98424.78;;;17.26;76.08
74975;BME280;68459;50.836;19.138;2023-06-10T01:10:05;98422.31;;;17.29;76.13
74975;BME280;68459;50.836;19.138;2023-06-10T01:13:16;98411.41;;;17.29;75.84
74975;BME280;68459;50.836;19.138;2023-06-10T01:16:22;98415.22;;;17.28;75.70
74975;BME280;68459;50.836;19.138;2023-06-10T01:19:27;98419.03;;;17.27;75.56
74975;BME280;68459;50.836;19.138;2023-06-10T01:22:34;98418.78;;;17.29;75.78
74975;BME280;68459;50.836;19.138;2023-06-10T01:25:40;98423.66;;;17.32;75.92
74975;BME280;68459;50.836;19.138;2023-06-10T01:28:54;98421.25;;;17.30;76.21
74975;BME280;68459;50.836;19.138;2023-06-10T01:32:07;98425.31;;;17.33;75.69
74975;BME280;68459;50.836;19.138;2023-06-10T01:35:21;98422.31;;;17.34;75.78
74975;BME280;68459;50.836;19.138;2023-06-10T01:38:32;98428.31;;;17.36;75.95
74975;BME280;68459;50.836;19.138;2023-06-10T01:41:40;98434.03;;;17.35;75.49
74975;BME280;68459;50.836;19.138;2023-06-10T01:44:44;98432.94;;;17.36;75.72
74975;BME280;68459;50.836;19.138;2023-06-10T01:47:48;98433.50;;;17.38;75.77
74975;BME280;68459;50.836;19.138;2023-06-10T01:50:52;98445.47;;;17.37;75.84
74975;BME280;68459;50.836;19.138;2023-06-10T01:53:59;98444.94;;;17.35;75.90
74975;BME280;68459;50.836;19.138;2023-06-10T01:57:03;98458.03;;;17.33;76.25
74975;BME280;68459;50.836;19.138;2023-06-10T02:00:10;98463.22;;;17.29;75.95
74975;BME280;68459;50.836;19.138;2023-06-10T02:03:19;98457.47;;;17.26;76.41
74975;BME280;68459;50.836;19.138;2023-06-10T02:06:23;98458.84;;;17.23;75.97
74975;BME280;68459;50.836;19.138;2023-06-10T02:09:29;98477.63;;;17.20;75.91
74975;BME280;68459;50.836;19.138;2023-06-10T02:12:33;98471.94;;;17.16;76.14
74975;BME280;68459;50.836;19.138;2023-06-10T02:15:37;98471.38;;;17.14;76.14
74975;BME280;68459;50.836;19.138;2023-06-10T02:18:42;98477.38;;;17.11;76.52
74975;BME280;68459;50.836;19.138;2023-06-10T02:21:46;98473.53;;;17.07;76.38
74975;BME280;68459;50.836;19.138;2023-06-10T02:24:52;98471.06;;;17.05;76.20
74975;BME280;68459;50.836;19.138;2023-06-10T02:27:55;98468.06;;;17.07;76.57
74975;BME280;68459;50.836;19.138;2023-06-10T02:31:00;98456.91;;;17.08;76.78
74975;BME280;68459;50.836;19.138;2023-06-10T02:34:04;98459.09;;;17.12;76.59
74975;BME280;68459;50.836;19.138;2023-06-10T02:37:08;98462.09;;;17.10;76.07
74975;BME280;68459;50.836;19.138;2023-06-10T02:40:13;98460.19;;;17.10;75.97
74975;BME280;68459;50.836;19.138;2023-06-10T02:43:18;98455.28;;;17.13;76.07
74975;BME280;68459;50.836;19.138;2023-06-10T02:46:22;98472.19;;;17.09;76.05
74975;BME280;68459;50.836;19.138;2023-06-10T02:49:28;98474.34;;;17.07;76.07
74975;BME280;68459;50.836;19.138;2023-06-10T02:52:32;98470.25;;;17.05;76.38
74975;BME280;68459;50.836;19.138;2023-06-10T02:55:37;98476.00;;;17.03;76.32
74975;BME280;68459;50.836;19.138;2023-06-10T02:58:44;98475.19;;;17.03;76.53
74975;BME280;68459;50.836;19.138;2023-06-10T03:01:51;98479.25;;;17.05;76.50
74975;BME280;68459;50.836;19.138;2023-06-10T03:04:56;98475.44;;;17.06;76.39
74975;BME280;68459;50.836;19.138;2023-06-10T03:08:00;98484.16;;;17.03;76.35
74975;BME280;68459;50.836;19.138;2023-06-10T03:11:07;98485.25;;;17.02;76.38
74975;BME280;68459;50.836;19.138;2023-06-10T03:14:13;98489.88;;;17.02;76.47
74975;BME280;68459;50.836;19.138;2023-06-10T03:17:16;98485.78;;;16.99;76.70
74975;BME280;68459;50.836;19.138;2023-06-10T03:20:21;98480.88;;;16.96;76.55
74975;BME280;68459;50.836;19.138;2023-06-10T03:23:26;98488.50;;;16.94;76.74
74975;BME280;68459;50.836;19.138;2023-06-10T03:26:33;98486.03;;;16.93;76.27
74975;BME280;68459;50.836;19.138;2023-06-10T03:29:37;98493.94;;;16.94;76.93
74975;BME280;68459;50.836;19.138;2023-06-10T03:32:42;98490.94;;;16.96;76.91
74975;BME280;68459;50.836;19.138;2023-06-10T03:35:49;98490.69;;;16.97;77.07
74975;BME280;68459;50.836;19.138;2023-06-10T03:38:54;98498.84;;;16.97;77.07
74975;BME280;68459;50.836;19.138;2023-06-10T03:42:01;98489.59;;;16.98;76.45
74975;BME280;68459;50.836;19.138;2023-06-10T03:45:07;98494.22;;;16.98;76.97
74975;BME280;68459;50.836;19.138;2023-06-10T03:48:12;98489.59;;;16.98;76.89
74975;BME280;68459;50.836;19.138;2023-06-10T03:51:21;98503.78;;;17.00;76.47
74975;BME280;68459;50.836;19.138;2023-06-10T03:54:25;98508.69;;;17.03;76.36
74975;BME280;68459;50.836;19.138;2023-06-10T03:57:31;98505.69;;;17.05;76.56
74975;BME280;68459;50.836;19.138;2023-06-10T04:00:35;98507.06;;;17.07;76.72
74975;BME280;68459;50.836;19.138;2023-06-10T04:03:43;98513.88;;;17.10;76.72
74975;BME280;68459;50.836;19.138;2023-06-10T04:06:47;98512.53;;;17.13;76.81
74975;BME280;68459;50.836;19.138;2023-06-10T04:09:51;98509.53;;;17.14;76.96
74975;BME280;68459;50.836;19.138;2023-06-10T04:12:57;98516.34;;;17.17;76.88
74975;BME280;68459;50.836;19.138;2023-06-10T04:16:05;98518.00;;;17.23;76.46
74975;BME280;68459;50.836;19.138;2023-06-10T04:19:09;98520.72;;;17.28;76.60
74975;BME280;68459;50.836;19.138;2023-06-10T04:22:13;98526.19;;;17.33;76.68
74975;BME280;68459;50.836;19.138;2023-06-10T04:25:16;98525.09;;;17.34;76.01
74975;BME280;68459;50.836;19.138;2023-06-10T04:28:24;98521.56;;;17.38;76.21
74975;BME280;68459;50.836;19.138;2023-06-10T04:31:30;98524.03;;;17.40;76.30
74975;BME280;68459;50.836;19.138;2023-06-10T04:34:35;98516.66;;;17.40;76.29
74975;BME280;68459;50.836;19.138;2023-06-10T04:37:42;98525.91;;;17.44;76.11
74975;BME280;68459;50.836;19.138;2023-06-10T04:40:46;98526.19;;;17.48;76.22
74975;BME280;68459;50.836;19.138;2023-06-10T04:43:53;98525.94;;;17.55;75.98
74975;BME280;68459;50.836;19.138;2023-06-10T04:46:57;98517.75;;;17.60;76.20
74975;BME280;68459;50.836;19.138;2023-06-10T04:50:01;98518.34;;;17.67;76.22
74975;BME280;68459;50.836;19.138;2023-06-10T04:53:06;98518.31;;;17.72;75.98
74975;BME280;68459;50.836;19.138;2023-06-10T04:56:12;98528.16;;;17.73;75.84
74975;BME280;68459;50.836;19.138;2023-06-10T04:59:18;98524.59;;;17.72;75.64
74975;BME280;68459;50.836;19.138;2023-06-10T05:02:22;98525.44;;;17.68;76.07
74975;BME280;68459;50.836;19.138;2023-06-10T05:05:26;98536.63;;;17.66;75.56
74975;BME280;68459;50.836;19.138;2023-06-10T05:08:30;98534.72;;;17.67;76.01
74975;BME280;68459;50.836;19.138;2023-06-10T05:11:34;98530.63;;;17.69;75.56
74975;BME280;68459;50.836;19.138;2023-06-10T05:14:39;98539.59;;;17.75;75.49
74975;BME280;68459;50.836;19.138;2023-06-10T05:17:43;98546.44;;;17.77;75.60
74975;BME280;68459;50.836;19.138;2023-06-10T05:20:47;98559.53;;;17.80;75.39
74975;BME280;68459;50.836;19.138;2023-06-10T05:23:51;98565.00;;;17.80;75.32
74975;BME280;68459;50.836;19.138;2023-06-10T05:26:55;98567.16;;;17.78;75.32
74975;BME280;68459;50.836;19.138;2023-06-10T05:30:01;98564.72;;;17.77;75.77
74975;BME280;68459;50.836;19.138;2023-06-10T05:33:05;98567.44;;;17.77;75.64
74975;BME280;68459;50.836;19.138;2023-06-10T05:36:09;98560.06;;;17.77;75.55
74975;BME280;68459;50.836;19.138;2023-06-10T05:39:13;98563.34;;;17.74;75.36
74975;BME280;68459;50.836;19.138;2023-06-10T05:42:17;98563.63;;;17.78;75.44
74975;BME280;68459;50.836;19.138;2023-06-10T05:45:22;98563.06;;;17.86;75.51
74975;BME280;68459;50.836;19.138;2023-06-10T05:48:26;98564.69;;;18.02;75.22
74975;BME280;68459;50.836;19.138;2023-06-10T05:51:30;98560.84;;;18.29;74.80
74975;BME280;68459;50.836;19.138;2023-06-10T05:54:34;98564.88;;;18.57;74.62
74975;BME280;68459;50.836;19.138;2023-06-10T05:57:41;98558.81;;;18.80;73.96
74975;BME280;68459;50.836;19.138;2023-06-10T06:00:47;98557.13;;;18.94;73.66
74975;BME280;68459;50.836;19.138;2023-06-10T06:03:50;98551.31;;;19.06;73.34
74975;BME280;68459;50.836;19.138;2023-06-10T06:06:54;98553.75;;;19.12;73.23
74975;BME280;68459;50.836;19.138;2023-06-10T06:09:58;98557.31;;;19.13;72.95
74975;BME280;68459;50.836;19.138;2023-06-10T06:13:02;98558.13;;;19.13;72.91
74975;BME280;68459;50.836;19.138;2023-06-10T06:16:07;98565.22;;;19.14;73.04
74975;BME280;68459;50.836;19.138;2023-06-10T06:19:12;98571.81;;;19.13;73.01
74975;BME280;68459;50.836;19.138;2023-06-10T06:22:15;98567.69;;;19.16;72.93
74975;BME280;68459;50.836;19.138;2023-06-10T06:25:22;98560.78;;;19.29;72.84
74975;BME280;68459;50.836;19.138;2023-06-10T06:28:26;98571.09;;;19.42;72.62
74975;BME280;68459;50.836;19.138;2023-06-10T06:31:33;98573.50;;;19.48;72.47
74975;BME280;68459;50.836;19.138;2023-06-10T06:34:36;98579.25;;;19.52;72.66
74975;BME280;68459;50.836;19.138;2023-06-10T06:37:40;98585.22;;;19.59;72.09
74975;BME280;68459;50.836;19.138;2023-06-10T06:40:58;98586.56;;;19.67;72.14
74975;BME280;68459;50.836;19.138;2023-06-10T06:44:05;98597.69;;;19.80;72.17
74975;BME280;68459;50.836;19.138;2023-06-10T06:47:15;98605.78;;;19.96;71.75
74975;BME280;68459;50.836;19.138;2023-06-10T06:50:22;98608.91;;;20.13;71.51
74975;BME280;68459;50.836;19.138;2023-06-10T06:53:25;98607.09;;;20.32;70.78
74975;BME280;68459;50.836;19.138;2023-06-10T06:56:34;98608.34;;;20.50;70.74
74975;BME280;68459;50.836;19.138;2023-06-10T06:59:37;98619.44;;;20.63;70.39
74975;BME280;68459;50.836;19.138;2023-06-10T07:02:43;98617.69;;;20.73;70.37
74975;BME280;68459;50.836;19.138;2023-06-10T07:05:47;98614.50;;;20.89;70.50
74975;BME280;68459;50.836;19.138;2023-06-10T07:08:50;98627.09;;;21.14;69.50
74975;BME280;68459;50.836;19.138;2023-06-10T07:11:54;98624.75;;;21.26;69.08
74975;BME280;68459;50.836;19.138;2023-06-10T07:14:58;98628.72;;;21.39;69.20
74975;BME280;68459;50.836;19.138;2023-06-10T07:18:03;98632.59;;;21.57;68.79
74975;BME280;68459;50.836;19.138;2023-06-10T07:21:07;98635.25;;;21.81;68.53
74975;BME280;68459;50.836;19.138;2023-06-10T07:24:11;98639.41;;;21.97;68.15
74975;BME280;68459;50.836;19.138;2023-06-10T07:27:15;98634.69;;;22.02;68.05
74975;BME280;68459;50.836;19.138;2023-06-10T07:30:19;98630.28;;;22.20;67.95
74975;BME280;68459;50.836;19.138;2023-06-10T07:33:24;98636.69;;;22.48;67.32
74975;BME280;68459;50.836;19.138;2023-06-10T07:36:29;98633.47;;;22.73;67.08
74975;BME280;68459;50.836;19.138;2023-06-10T07:39:32;98639.31;;;22.99;66.21
74975;BME280;68459;50.836;19.138;2023-06-10T07:42:36;98648.50;;;23.08;65.42
74975;BME280;68459;50.836;19.138;2023-06-10T07:45:40;98638.59;;;23.21;65.18
74975;BME280;68459;50.836;19.138;2023-06-10T07:48:45;98646.53;;;23.36;64.74
74975;BME280;68459;50.836;19.138;2023-06-10T07:51:50;98641.88;;;23.51;64.36
74975;BME280;68459;50.836;19.138;2023-06-10T07:54:54;98641.25;;;23.54;64.02
74975;BME280;68459;50.836;19.138;2023-06-10T07:57:58;98648.28;;;23.60;64.20
74975;BME280;68459;50.836;19.138;2023-06-10T08:01:01;98645.31;;;23.70;63.74
74975;BME280;68459;50.836;19.138;2023-06-10T08:04:07;98641.19;;;23.81;63.15
74975;BME280;68459;50.836;19.138;2023-06-10T08:07:11;98653.31;;;23.94;62.87
74975;BME280;68459;50.836;19.138;2023-06-10T08:10:15;98653.41;;;23.89;62.55
74975;BME280;68459;50.836;19.138;2023-06-10T08:13:18;98653.84;;;23.82;62.55
74975;BME280;68459;50.836;19.138;2023-06-10T08:16:22;98656.47;;;23.87;62.75
74975;BME280;68459;50.836;19.138;2023-06-10T08:19:27;98653.59;;;23.92;62.45
74975;BME280;68459;50.836;19.138;2023-06-10T08:22:33;98660.84;;;23.88;62.45
74975;BME280;68459;50.836;19.138;2023-06-10T08:25:36;98654.03;;;23.86;62.49
74975;BME280;68459;50.836;19.138;2023-06-10T08:28:40;98657.81;;;23.76;62.37
74975;BME280;68459;50.836;19.138;2023-06-10T08:31:44;98657.31;;;23.74;62.32
74975;BME280;68459;50.836;19.138;2023-06-10T08:34:49;98658.72;;;23.85;62.58
74975;BME280;68459;50.836;19.138;2023-06-10T08:37:53;98653.84;;;23.82;62.38
74975;BME280;68459;50.836;19.138;2023-06-10T08:40:59;98664.66;;;23.78;62.13
74975;BME280;68459;50.836;19.138;2023-06-10T08:44:09;98652.81;;;23.78;61.92
74975;BME280;68459;50.836;19.138;2023-06-10T08:47:22;98648.50;;;23.86;62.05
74975;BME280;68459;50.836;19.138;2023-06-10T08:50:29;98654.94;;;23.95;61.66
74975;BME280;68459;50.836;19.138;2023-06-10T08:53:36;98651.47;;;24.11;61.59
74975;BME280;68459;50.836;19.138;2023-06-10T08:56:45;98652.72;;;24.41;61.18
74975;BME280;68459;50.836;19.138;2023-06-10T08:59:54;98648.88;;;24.51;60.13
74975;BME280;68459;50.836;19.138;2023-06-10T09:03:00;98653.22;;;24.43;60.45
74975;BME280;68459;50.836;19.138;2023-06-10T09:06:09;98649.44;;;24.39;60.36
74975;BME280;68459;50.836;19.138;2023-06-10T09:09:14;98647.69;;;24.43;60.04
74975;BME280;68459;50.836;19.138;2023-06-10T09:12:19;98644.81;;;24.48;60.14
74975;BME280;68459;50.836;19.138;2023-06-10T09:15:22;98647.00;;;24.60;60.54
74975;BME280;68459;50.836;19.138;2023-06-10T09:18:27;98653.25;;;24.74;59.79
74975;BME280;68459;50.836;19.138;2023-06-10T09:21:33;98653.84;;;24.94;59.45
74975;BME280;68459;50.836;19.138;2023-06-10T09:24:38;98655.69;;;25.07;59.23
74975;BME280;68459;50.836;19.138;2023-06-10T09:27:46;98663.66;;;25.08;58.67
74975;BME280;68459;50.836;19.138;2023-06-10T09:31:02;98658.94;;;25.00;59.04
74975;BME280;68459;50.836;19.138;2023-06-10T09:34:08;98656.16;;;25.00;58.80
74975;BME280;68459;50.836;19.138;2023-06-10T09:37:20;98663.81;;;25.03;58.88
74975;BME280;68459;50.836;19.138;2023-06-10T09:40:24;98657.69;;;25.15;58.59
74975;BME280;68459;50.836;19.138;2023-06-10T09:43:43;98653.34;;;25.31;57.46
74975;BME280;68459;50.836;19.138;2023-06-10T09:46:51;98658.78;;;25.53;57.33
74975;BME280;68459;50.836;19.138;2023-06-10T09:49:57;98661.25;;;25.72;56.77
74975;BME280;68459;50.836;19.138;2023-06-10T09:53:02;98660.97;;;25.82;56.06
74975;BME280;68459;50.836;19.138;2023-06-10T09:56:10;98664.53;;;25.91;55.69
74975;BME280;68459;50.836;19.138;2023-06-10T09:59:14;98668.13;;;26.01;55.05
74975;BME280;68459;50.836;19.138;2023-06-10T10:02:18;98670.91;;;26.09;54.98
74975;BME280;68459;50.836;19.138;2023-06-10T10:05:22;98676.91;;;26.11;55.27
74975;BME280;68459;50.836;19.138;2023-06-10T10:08:28;98680.00;;;26.01;55.49
74975;BME280;68459;50.836;19.138;2023-06-10T10:11:35;98664.34;;;25.71;55.92
74975;BME280;68459;50.836;19.138;2023-06-10T10:14:43;98654.34;;;25.44;55.94
74975;BME280;68459;50.836;19.138;2023-06-10T10:17:53;98658.22;;;25.26;55.90
74975;BME280;68459;50.836;19.138;2023-06-10T10:21:06;98648.75;;;25.18;55.58
74975;BME280;68459;50.836;19.138;2023-06-10T10:24:18;98654.81;;;25.29;54.75
74975;BME280;68459;50.836;19.138;2023-06-10T10:27:27;98641.84;;;25.38;55.01
74975;BME280;68459;50.836;19.138;2023-06-10T10:30:37;98647.88;;;25.48;55.25
74975;BME280;68459;50.836;19.138;2023-06-10T10:33:51;98648.22;;;25.55;53.87
74975;BME280;68459;50.836;19.138;2023-06-10T10:36:59;98649.41;;;25.63;54.42
74975;BME280;68459;50.836;19.138;2023-06-10T10:40:07;98655.59;;;25.69;53.83
74975;BME280;68459;50.836;19.138;2023-06-10T10:43:12;98648.56;;;25.71;53.58
74975;BME280;68459;50.836;19.138;2023-06-10T10:46:18;98648.13;;;25.78;53.70
74975;BME280;68459;50.836;19.138;2023-06-10T10:49:22;98646.66;;;25.89;53.08
74975;BME280;68459;50.836;19.138;2023-06-10T10:52:47;98642.91;;;26.02;53.48
74975;BME280;68459;50.836;19.138;2023-06-10T10:56:04;98642.09;;;26.19;52.85
74975;BME280;68459;50.836;19.138;2023-06-10T10:59:11;98639.16;;;26.24;52.53
74975;BME280;68459;50.836;19.138;2023-06-10T11:02:16;98636.09;;;26.43;51.62
74975;BME280;68459;50.836;19.138;2023-06-10T11:05:32;98634.44;;;26.50;51.65
74975;BME280;68459;50.836;19.138;2023-06-10T11:08:46;98632.28;;;26.73;51.67
74975;BME280;68459;50.836;19.138;2023-06-10T11:11:52;98619.69;;;26.84;51.42
74975;BME280;68459;50.836;19.138;2023-06-10T11:15:00;98623.75;;;26.95;50.95
74975;BME280;68459;50.836;19.138;2023-06-10T11:21:57;98605.38;;;27.20;48.28
74975;BME280;68459;50.836;19.138;2023-06-10T11:25:02;98601.22;;;27.35;49.98
74975;BME280;68459;50.836;19.138;2023-06-10T11:28:21;98595.59;;;27.52;49.89
74975;BME280;68459;50.836;19.138;2023-06-10T11:31:32;98590.63;;;27.66;49.11
74975;BME280;68459;50.836;19.138;2023-06-10T11:34:37;98588.44;;;27.72;48.89
74975;BME280;68459;50.836;19.138;2023-06-10T11:37:41;98589.66;;;27.83;48.63
74975;BME280;68459;50.836;19.138;2023-06-10T11:40:46;98586.16;;;27.95;47.98
74975;BME280;68459;50.836;19.138;2023-06-10T11:43:53;98592.00;;;28.14;48.28
74975;BME280;68459;50.836;19.138;2023-06-10T11:46:58;98579.22;;;28.55;47.69
74975;BME280;68459;50.836;19.138;2023-06-10T11:50:03;98609.63;;;28.96;46.89
74975;BME280;68459;50.836;19.138;2023-06-10T11:53:08;98602.44;;;28.83;46.21
74975;BME280;68459;50.836;19.138;2023-06-10T11:56:12;98611.09;;;27.74;47.09
74975;BME280;68459;50.836;19.138;2023-06-10T11:59:17;98618.69;;;26.98;48.76
74975;BME280;68459;50.836;19.138;2023-06-10T12:02:22;98610.22;;;26.39;48.88
74975;BME280;68459;50.836;19.138;2023-06-10T12:05:26;98622.09;;;25.87;49.70
74975;BME280;68459;50.836;19.138;2023-06-10T12:08:30;98628.84;;;25.38;50.55
74975;BME280;68459;50.836;19.138;2023-06-10T12:11:37;98630.53;;;25.08;51.46
74975;BME280;68459;50.836;19.138;2023-06-10T12:14:54;98622.59;;;24.76;52.12
74975;BME280;68459;50.836;19.138;2023-06-10T12:17:59;98619.00;;;24.75;52.60
74975;BME280;68459;50.836;19.138;2023-06-10T12:21:15;98611.91;;;24.83;53.05
74975;BME280;68459;50.836;19.138;2023-06-10T12:24:20;98598.41;;;24.81;53.06
74975;BME280;68459;50.836;19.138;2023-06-10T12:27:24;98592.72;;;24.78;53.68
74975;BME280;68459;50.836;19.138;2023-06-10T12:30:32;98604.13;;;24.85;53.51
74975;BME280;68459;50.836;19.138;2023-06-10T12:33:36;98601.69;;;24.92;53.09
74975;BME280;68459;50.836;19.138;2023-06-10T12:36:48;98601.84;;;25.35;52.94
74975;BME280;68459;50.836;19.138;2023-06-10T12:39:52;98611.38;;;25.69;52.67
74975;BME280;68459;50.836;19.138;2023-06-10T12:42:56;98617.88;;;26.07;51.92
74975;BME280;68459;50.836;19.138;2023-06-10T12:46:09;98606.94;;;26.54;50.78
74975;BME280;68459;50.836;19.138;2023-06-10T12:49:19;98609.00;;;26.74;50.44
74975;BME280;68459;50.836;19.138;2023-06-10T12:52:24;98605.09;;;26.67;50.38
74975;BME280;68459;50.836;19.138;2023-06-10T12:55:28;98595.38;;;26.52;50.29
74975;BME280;68459;50.836;19.138;2023-06-10T12:58:32;98584.50;;;26.38;50.20
74975;BME280;68459;50.836;19.138;2023-06-10T13:01:38;98585.00;;;26.14;50.16
74975;BME280;68459;50.836;19.138;2023-06-10T13:04:43;98593.97;;;25.85;50.37
74975;BME280;68459;50.836;19.138;2023-06-10T13:07:47;98590.25;;;25.90;50.67
74975;BME280;68459;50.836;19.138;2023-06-10T13:10:52;98592.66;;;26.17;50.25
74975;BME280;68459;50.836;19.138;2023-06-10T13:13:55;98590.63;;;27.08;48.91
74975;BME280;68459;50.836;19.138;2023-06-10T13:17:01;98590.19;;;29.85;44.72
74975;BME280;68459;50.836;19.138;2023-06-10T13:20:06;98589.25;;;33.20;39.06
74975;BME280;68459;50.836;19.138;2023-06-10T13:23:11;98605.00;;;35.77;35.46
74975;BME280;68459;50.836;19.138;2023-06-10T13:26:15;98603.28;;;38.19;32.63
74975;BME280;68459;50.836;19.138;2023-06-10T13:29:20;98607.78;;;40.47;30.15
74975;BME280;68459;50.836;19.138;2023-06-10T13:32:25;98610.34;;;42.48;27.85
74975;BME280;68459;50.836;19.138;2023-06-10T13:35:29;98614.09;;;43.62;26.28
74975;BME280;68459;50.836;19.138;2023-06-10T13:38:32;98619.81;;;43.91;25.33
74975;BME280;68459;50.836;19.138;2023-06-10T13:41:36;98608.03;;;41.60;27.86
74975;BME280;68459;50.836;19.138;2023-06-10T13:44:40;98612.03;;;42.06;27.12
74975;BME280;68459;50.836;19.138;2023-06-10T13:47:45;98600.81;;;42.38;26.70
74975;BME280;68459;50.836;19.138;2023-06-10T13:50:49;98598.38;;;39.89;28.60
74975;BME280;68459;50.836;19.138;2023-06-10T13:53:53;98589.75;;;37.39;32.03
74975;BME280;68459;50.836;19.138;2023-06-10T13:56:56;98597.38;;;37.46;32.32
74975;BME280;68459;50.836;19.138;2023-06-10T14:00:02;98606.69;;;40.03;29.06
74975;BME280;68459;50.836;19.138;2023-06-10T14:03:08;98599.97;;;41.58;27.00
74975;BME280;68459;50.836;19.138;2023-06-10T14:06:12;98605.56;;;40.31;28.04
74975;BME280;68459;50.836;19.138;2023-06-10T14:09:20;98589.69;;;40.07;28.09
74975;BME280;68459;50.836;19.138;2023-06-10T14:12:25;98594.06;;;41.26;27.34
74975;BME280;68459;50.836;19.138;2023-06-10T14:15:29;98601.13;;;42.96;25.22
74975;BME280;68459;50.836;19.138;2023-06-10T14:18:34;98599.53;;;44.59;23.59
74975;BME280;68459;50.836;19.138;2023-06-10T14:21:37;98605.50;;;44.36;23.00
74975;BME280;68459;50.836;19.138;2023-06-10T14:24:41;98602.63;;;42.84;25.08
74975;BME280;68459;50.836;19.138;2023-06-10T14:27:45;98584.88;;;41.85;25.56
74975;BME280;68459;50.836;19.138;2023-06-10T14:30:49;98596.28;;;39.55;27.84
74975;BME280;68459;50.836;19.138;2023-06-10T14:33:54;98585.31;;;37.53;29.59
74975;BME280;68459;50.836;19.138;2023-06-10T14:36:58;98574.16;;;35.88;31.78
74975;BME280;68459;50.836;19.138;2023-06-10T14:40:03;98571.72;;;34.40;33.54
74975;BME280;68459;50.836;19.138;2023-06-10T14:43:08;98563.19;;;33.16;34.91
74975;BME280;68459;50.836;19.138;2023-06-10T14:46:12;98560.06;;;32.95;34.90
74975;BME280;68459;50.836;19.138;2023-06-10T14:49:18;98557.69;;;33.20;34.73
74975;BME280;68459;50.836;19.138;2023-06-10T14:52:21;98559.13;;;33.63;34.38
74975;BME280;68459;50.836;19.138;2023-06-10T14:55:25;98568.72;;;34.59;32.99
74975;BME280;68459;50.836;19.138;2023-06-10T14:58:29;98567.09;;;35.50;31.61
74975;BME280;68459;50.836;19.138;2023-06-10T15:01:33;98572.97;;;35.92;30.96
74975;BME280;68459;50.836;19.138;2023-06-10T15:04:38;98567.38;;;35.99;30.74
74975;BME280;68459;50.836;19.138;2023-06-10T15:07:43;98571.06;;;34.94;31.99
74975;BME280;68459;50.836;19.138;2023-06-10T15:10:48;98575.03;;;34.89;32.69
74975;BME280;68459;50.836;19.138;2023-06-10T15:13:53;98567.16;;;34.65;32.82
74975;BME280;68459;50.836;19.138;2023-06-10T15:16:56;98577.56;;;34.64;32.95
74975;BME280;68459;50.836;19.138;2023-06-10T15:20:04;98585.56;;;35.51;31.66
74975;BME280;68459;50.836;19.138;2023-06-10T15:23:08;98576.25;;;36.09;30.67
74975;BME280;68459;50.836;19.138;2023-06-10T15:26:12;98585.59;;;35.58;30.88
74975;BME280;68459;50.836;19.138;2023-06-10T15:29:16;98584.44;;;34.30;31.28
74975;BME280;68459;50.836;19.138;2023-06-10T15:32:20;98576.31;;;33.61;32.65
74975;BME280;68459;50.836;19.138;2023-06-10T15:35:25;98573.56;;;33.65;31.99
74975;BME280;68459;50.836;19.138;2023-06-10T15:38:29;98583.19;;;33.15;32.85
74975;BME280;68459;50.836;19.138;2023-06-10T15:41:32;98577.31;;;32.74;33.16
74975;BME280;68459;50.836;19.138;2023-06-10T15:44:36;98578.91;;;32.33;33.33
74975;BME280;68459;50.836;19.138;2023-06-10T15:47:40;98570.09;;;31.93;33.59
74975;BME280;68459;50.836;19.138;2023-06-10T15:50:46;98581.94;;;31.35;34.39
74975;BME280;68459;50.836;19.138;2023-06-10T15:53:50;98582.13;;;31.62;34.20
74975;BME280;68459;50.836;19.138;2023-06-10T15:56:54;98581.66;;;31.75;33.63
74975;BME280;68459;50.836;19.138;2023-06-10T15:59:57;98580.50;;;32.15;32.77
74975;BME280;68459;50.836;19.138;2023-06-10T16:03:01;98584.88;;;32.54;32.81
74975;BME280;68459;50.836;19.138;2023-06-10T16:06:07;98593.06;;;32.44;32.51
74975;BME280;68459;50.836;19.138;2023-06-10T16:09:11;98586.84;;;32.31;32.87
74975;BME280;68459;50.836;19.138;2023-06-10T16:12:14;98585.13;;;31.88;33.26
74975;BME280;68459;50.836;19.138;2023-06-10T16:15:18;98587.25;;;31.40;34.28